Time;durP1;ratioP1;P1;durP2;ratioP2;P2;SDS_P1;SDS_P2;PMS_P1;PMS_P2;Temp;Humidity;BMP_temperature;BMP_pressure;BME280_temperature;BME280_humidity;BME280_pressure;Samples;Min_cycle;Max_cycle;Signal;HPM_P1;HPM_P2
2021/09/22 00:02:01;;;;;;;21.20;15.57;;;9.50;99.90;;;;;;5028476;28;20114;-70
2021/09/22 00:04:28;;;;;;;20.95;15.15;;;9.50;99.90;;;;;;5026474;28;20056;-70
2021/09/22 00:06:56;;;;;;;20.20;14.75;;;9.40;99.90;;;;;;5040373;28;20597;-70
2021/09/22 00:09:23;;;;;;;21.65;15.98;;;9.40;99.90;;;;;;5032838;28;20045;-70
2021/09/22 00:11:50;;;;;;;25.27;16.13;;;9.30;99.90;;;;;;5020838;28;20483;-70
2021/09/22 00:14:18;;;;;;;20.95;15.15;;;9.20;99.90;;;;;;5026667;28;20046;-70
2021/09/22 00:16:45;;;;;;;21.42;15.15;;;9.10;99.90;;;;;;5022112;28;20133;-70
2021/09/22 00:19:13;;;;;;;23.88;15.18;;;9.10;99.90;;;;;;5023134;28;20042;-70
2021/09/22 00:21:40;;;;;;;22.00;15.65;;;9.10;99.90;;;;;;5039012;28;20068;-70
2021/09/22 00:24:07;;;;;;;21.63;14.38;;;9.00;99.90;;;;;;5032277;28;20046;-70
2021/09/22 00:26:34;;;;;;;21.60;15.15;;;9.10;99.90;;;;;;5046134;28;20037;-71
2021/09/22 00:29:02;;;;;;;20.77;15.43;;;9.10;99.90;;;;;;5049530;28;20468;-70
2021/09/22 00:31:34;;;;;;;21.77;15.32;;;9.10;99.90;;;;;;5031397;28;20056;-70
2021/09/22 00:34:05;;;;;;;20.98;15.52;;;9.00;99.90;;;;;;5032287;28;20423;-70
2021/09/22 00:36:33;;;;;;;21.10;14.77;;;9.00;99.90;;;;;;5031608;28;20128;-70
2021/09/22 00:39:03;;;;;;;20.80;15.40;;;9.00;99.90;;;;;;5030784;28;20103;-70
2021/09/22 00:41:31;;;;;;;21.63;15.07;;;9.00;99.90;;;;;;5042978;28;20041;-70
2021/09/22 00:43:58;;;;;;;20.55;15.35;;;9.00;99.90;;;;;;5050794;28;20415;-70
2021/09/22 00:46:25;;;;;;;23.75;15.90;;;9.00;99.90;;;;;;5049930;28;20059;-70
2021/09/22 00:48:53;;;;;;;19.48;14.13;;;9.00;99.90;;;;;;5047790;28;20128;-70
2021/09/22 00:51:22;;;;;;;20.90;14.93;;;9.00;99.90;;;;;;5016978;28;20053;-70
2021/09/22 00:53:49;;;;;;;22.25;15.25;;;9.00;99.90;;;;;;5009833;28;20042;-70
2021/09/22 00:56:17;;;;;;;22.00;15.10;;;9.00;99.90;;;;;;5013745;28;20128;-70
2021/09/22 00:58:45;;;;;;;21.50;15.77;;;9.00;99.90;;;;;;5018847;28;20435;-70
2021/09/22 01:01:12;;;;;;;21.17;15.50;;;8.90;99.90;;;;;;4998998;28;20068;-71
2021/09/22 01:03:40;;;;;;;22.83;15.73;;;8.90;99.90;;;;;;5036695;28;20049;-69
2021/09/22 01:06:07;;;;;;;22.98;15.75;;;8.80;99.90;;;;;;5034514;28;20074;-69
2021/09/22 01:08:35;;;;;;;19.77;15.23;;;8.90;99.90;;;;;;5034615;28;20045;-70
2021/09/22 01:11:03;;;;;;;21.98;15.98;;;8.80;99.90;;;;;;5039318;28;20052;-69
2021/09/22 01:13:31;;;;;;;19.73;14.65;;;8.90;99.90;;;;;;5013028;28;20095;-69
2021/09/22 01:15:59;;;;;;;22.73;15.73;;;8.80;99.90;;;;;;5019082;28;20373;-69
2021/09/22 01:18:26;;;;;;;20.42;15.32;;;8.80;99.90;;;;;;5019920;28;20048;-70
2021/09/22 01:20:58;;;;;;;22.60;14.40;;;8.80;99.90;;;;;;5040025;28;20129;-69
2021/09/22 01:23:28;;;;;;;19.17;14.75;;;8.80;99.90;;;;;;5012790;28;20053;-69
2021/09/22 01:26:01;;;;;;;21.50;15.07;;;8.70;99.90;;;;;;5018693;28;20046;-69
2021/09/22 01:28:30;;;;;;;20.10;14.70;;;8.70;99.90;;;;;;5046387;28;20056;-69
2021/09/22 01:31:01;;;;;;;20.85;14.75;;;8.70;99.90;;;;;;5030645;28;20053;-69
2021/09/22 01:33:32;;;;;;;22.02;15.43;;;8.60;99.90;;;;;;5046899;28;20403;-69
2021/09/22 01:36:14;;;;;;;19.33;13.85;;;8.60;99.90;;;;;;5035431;28;20441;-70
2021/09/22 01:38:47;;;;;;;22.50;16.00;;;8.60;99.90;;;;;;5028605;28;20072;-69
2021/09/22 01:41:19;;;;;;;23.00;14.63;;;8.60;99.90;;;;;;5026293;28;20706;-70
2021/09/22 01:43:55;;;;;;;22.38;15.98;;;8.50;99.90;;;;;;5025126;28;20048;-70
2021/09/22 01:46:36;;;;;;;20.02;14.18;;;8.50;99.90;;;;;;5042059;28;20041;-70
2021/09/22 01:49:03;;;;;;;28.48;16.60;;;8.50;99.90;;;;;;5045947;28;20081;-70
2021/09/22 01:51:32;;;;;;;21.88;14.88;;;8.60;99.90;;;;;;5036865;28;20064;-70
2021/09/22 01:54:25;;;;;;;23.67;15.55;;;8.50;99.90;;;;;;5029866;28;20049;-70
2021/09/22 01:56:53;;;;;;;19.95;15.05;;;8.50;99.90;;;;;;5013005;28;20046;-70
2021/09/22 01:59:22;;;;;;;20.55;15.40;;;8.50;99.90;;;;;;5021107;28;20095;-70
2021/09/22 02:02:12;;;;;;;19.40;14.32;;;8.50;99.90;;;;;;5031754;28;20049;-70
2021/09/22 02:05:00;;;;;;;23.27;15.68;;;8.50;99.90;;;;;;5035375;28;20045;-70
2021/09/22 02:07:28;;;;;;;18.83;13.75;;;8.50;99.90;;;;;;5001355;28;20050;-70
2021/09/22 02:10:00;;;;;;;23.80;15.50;;;8.50;99.90;;;;;;5034624;28;20103;-70
2021/09/22 02:12:28;;;;;;;23.35;17.15;;;8.50;99.90;;;;;;5014788;28;20068;-70
2021/09/22 02:14:59;;;;;;;22.33;15.70;;;8.50;99.90;;;;;;5012009;28;20107;-70
2021/09/22 02:17:26;;;;;;;22.70;15.20;;;8.40;99.90;;;;;;5024135;28;20034;-70
2021/09/22 02:19:54;;;;;;;22.10;15.80;;;8.50;99.90;;;;;;5021018;28;20045;-70
2021/09/22 02:22:42;;;;;;;20.85;14.60;;;8.40;99.90;;;;;;5029904;28;20053;-70
2021/09/22 02:25:17;;;;;;;20.35;14.77;;;8.40;99.90;;;;;;5031642;28;20503;-70
2021/09/22 02:27:46;;;;;;;22.70;15.85;;;8.50;99.90;;;;;;5010681;28;20049;-70
2021/09/22 02:30:17;;;;;;;20.02;14.35;;;8.40;99.90;;;;;;5010761;28;20041;-70
2021/09/22 02:32:51;;;;;;;20.77;14.52;;;8.40;99.90;;;;;;5037368;28;20053;-70
2021/09/22 02:35:18;;;;;;;21.02;15.07;;;8.40;99.90;;;;;;5042448;28;20875;-70
2021/09/22 02:38:04;;;;;;;21.42;15.07;;;8.40;99.90;;;;;;5026265;28;20037;-70
2021/09/22 02:40:50;;;;;;;23.23;15.80;;;8.40;99.90;;;;;;5011341;28;20139;-70
2021/09/22 02:43:25;;;;;;;22.02;15.65;;;8.40;99.90;;;;;;5030745;28;20045;-70
2021/09/22 02:45:53;;;;;;;21.15;15.50;;;8.40;99.90;;;;;;5003289;28;20077;-70
2021/09/22 02:48:33;;;;;;;19.05;14.32;;;8.30;99.90;;;;;;5036781;28;20049;-70
2021/09/22 02:51:02;;;;;;;20.33;14.93;;;8.30;99.90;;;;;;5018704;28;20653;-70
2021/09/22 02:53:30;;;;;;;21.90;14.52;;;8.30;99.90;;;;;;5011584;28;20053;-70
2021/09/22 02:55:58;;;;;;;20.80;14.50;;;8.20;99.90;;;;;;5027665;28;20124;-70
2021/09/22 02:58:25;;;;;;;21.40;15.18;;;8.20;99.90;;;;;;5028153;28;20045;-70
2021/09/22 03:00:57;;;;;;;23.47;16.37;;;8.20;99.90;;;;;;5026304;28;20123;-70
2021/09/22 03:03:25;;;;;;;21.77;14.90;;;8.20;99.90;;;;;;5015362;28;20033;-70
2021/09/22 03:05:52;;;;;;;19.75;14.65;;;8.20;99.90;;;;;;5028537;28;20061;-70
2021/09/22 03:08:20;;;;;;;21.63;15.63;;;8.20;99.90;;;;;;5041315;28;20044;-70
2021/09/22 03:10:47;;;;;;;23.15;16.45;;;8.20;99.90;;;;;;5032658;28;20077;-70
2021/09/22 03:13:15;;;;;;;20.45;13.88;;;8.20;99.90;;;;;;4987613;28;20132;-70
2021/09/22 03:15:42;;;;;;;21.60;14.38;;;8.30;99.90;;;;;;5020757;28;20053;-70
2021/09/22 03:18:10;;;;;;;21.90;15.32;;;8.40;99.90;;;;;;5015679;28;20068;-70
2021/09/22 03:20:38;;;;;;;22.00;15.77;;;8.50;99.90;;;;;;5036746;28;20065;-70
2021/09/22 03:23:05;;;;;;;23.13;15.52;;;8.50;99.90;;;;;;5021695;28;20056;-70
2021/09/22 03:25:37;;;;;;;;;;;8.70;99.90;;;;;;5039020;28;20055;-70
2021/09/22 03:28:05;;;;;;;19.90;14.23;;;8.70;99.90;;;;;;5033744;28;19921;-70
2021/09/22 03:30:35;;;;;;;23.48;15.30;;;8.70;99.90;;;;;;5040092;28;20475;-69
2021/09/22 03:33:15;;;;;;;20.88;14.75;;;8.70;99.90;;;;;;5028437;28;20116;-70
2021/09/22 03:35:44;;;;;;;20.08;14.20;;;8.70;99.90;;;;;;5045746;28;20422;-69
2021/09/22 03:38:13;;;;;;;22.98;14.95;;;8.80;99.90;;;;;;5020926;28;20092;-70
2021/09/22 03:40:41;;;;;;;20.75;14.80;;;8.80;99.90;;;;;;5028226;28;20060;-70
2021/09/22 03:43:09;;;;;;;21.60;15.25;;;8.70;99.90;;;;;;5043936;28;20095;-69
2021/09/22 03:45:37;;;;;;;19.65;14.13;;;8.70;99.90;;;;;;5041414;28;20055;-69
2021/09/22 03:48:05;;;;;;;19.65;13.75;;;8.60;99.90;;;;;;5025844;28;20508;-70
2021/09/22 03:50:33;;;;;;;19.25;14.45;;;8.70;99.90;;;;;;5039286;28;20407;-70
2021/09/22 03:53:10;;;;;;;17.60;13.40;;;8.70;99.90;;;;;;5016119;28;20055;-70
2021/09/22 03:55:42;;;;;;;21.77;15.73;;;8.70;99.90;;;;;;5031551;28;20145;-70
2021/09/22 03:58:11;;;;;;;21.40;14.15;;;8.70;99.90;;;;;;5020856;28;20136;-70
2021/09/22 04:00:39;;;;;;;18.83;14.00;;;8.80;99.90;;;;;;5014820;28;20506;-70
2021/09/22 04:03:07;;;;;;;21.17;14.90;;;8.80;99.90;;;;;;5035061;28;20148;-70
2021/09/22 04:05:35;;;;;;;18.13;13.05;;;8.80;99.90;;;;;;5037974;28;20047;-70
2021/09/22 04:08:05;;;;;;;20.27;14.63;;;8.90;99.90;;;;;;5015892;28;20041;-70
2021/09/22 04:10:37;;;;;;;19.10;13.03;;;9.00;99.90;;;;;;5000842;28;20065;-70
2021/09/22 04:13:05;;;;;;;19.30;13.98;;;9.00;99.90;;;;;;5014361;28;20116;-70
2021/09/22 04:15:38;;;;;;;22.55;15.32;;;9.00;99.90;;;;;;5025773;28;20549;-70
2021/09/22 04:18:06;;;;;;;21.08;14.73;;;9.20;99.90;;;;;;5027384;28;20041;-70
2021/09/22 04:20:33;;;;;;;23.05;14.50;;;9.20;99.90;;;;;;5021886;28;20037;-70
2021/09/22 04:23:01;;;;;;;19.58;13.07;;;9.20;99.90;;;;;;5039627;28;20606;-70
2021/09/22 04:25:29;;;;;;;20.10;13.85;;;9.20;99.90;;;;;;5035555;28;20037;-70
2021/09/22 04:28:01;;;;;;;17.73;13.70;;;9.20;99.90;;;;;;5033852;28;20492;-70
2021/09/22 04:30:47;;;;;;;19.85;14.02;;;9.20;99.90;;;;;;5035352;28;20063;-70
2021/09/22 04:33:33;;;;;;;21.58;14.93;;;9.30;99.90;;;;;;5044321;28;20076;-70
2021/09/22 04:36:19;;;;;;;17.83;12.38;;;9.30;99.90;;;;;;5042565;28;20037;-70
2021/09/22 04:39:07;;;;;;;17.40;12.90;;;9.40;99.90;;;;;;5041070;28;20067;-70
2021/09/22 04:41:53;;;;;;;22.08;14.02;;;9.40;99.90;;;;;;5042698;28;20037;-70
2021/09/22 04:44:44;;;;;;;17.17;12.65;;;9.50;99.90;;;;;;5041742;28;20065;-70
2021/09/22 04:47:30;;;;;;;18.38;13.75;;;9.60;99.90;;;;;;5032378;28;21015;-70
2021/09/22 04:50:16;;;;;;;19.63;13.43;;;9.60;99.90;;;;;;5035830;28;20057;-70
2021/09/22 04:53:02;;;;;;;19.20;13.68;;;9.70;99.90;;;;;;5024644;28;20050;-70
2021/09/22 04:55:56;;;;;;;19.40;14.25;;;9.70;99.90;;;;;;5006514;28;20057;-70
2021/09/22 04:58:43;;;;;;;19.52;12.68;;;9.70;99.90;;;;;;5029273;28;20054;-70
2021/09/22 05:01:28;;;;;;;19.77;14.98;;;9.70;99.90;;;;;;5011699;28;20045;-70
2021/09/22 05:04:15;;;;;;;21.40;13.52;;;9.60;99.90;;;;;;5016812;28;20471;-70
2021/09/22 05:07:01;;;;;;;18.98;13.50;;;9.70;99.90;;;;;;5013958;28;20550;-70
2021/09/22 05:09:47;;;;;;;19.85;13.88;;;9.70;99.90;;;;;;5032792;28;20057;-70
2021/09/22 05:12:33;;;;;;;18.73;13.90;;;9.80;99.90;;;;;;5026769;28;20111;-70
2021/09/22 05:15:19;;;;;;;20.77;14.02;;;9.90;99.90;;;;;;5035685;28;20129;-71
2021/09/22 05:18:05;;;;;;;20.27;14.32;;;9.90;99.90;;;;;;5017723;28;20107;-70
2021/09/22 05:20:51;;;;;;;21.75;15.25;;;10.00;99.90;;;;;;4999364;28;20786;-70
2021/09/22 05:23:38;;;;;;;21.10;14.75;;;10.00;99.90;;;;;;5031412;28;20049;-70
2021/09/22 05:26:24;;;;;;;19.67;13.60;;;10.00;99.90;;;;;;5034274;28;20053;-71
2021/09/22 05:29:10;;;;;;;20.27;13.57;;;10.00;99.90;;;;;;5009822;28;20540;-71
2021/09/22 05:31:56;;;;;;;18.25;13.23;;;10.10;99.90;;;;;;5031095;28;20042;-71
2021/09/22 05:34:42;;;;;;;17.98;12.63;;;10.10;99.90;;;;;;5034421;28;20111;-70
2021/09/22 05:37:30;;;;;;;21.00;14.45;;;10.10;99.90;;;;;;5033546;28;20049;-71
2021/09/22 05:40:16;;;;;;;20.25;13.40;;;10.20;99.90;;;;;;5035108;28;20037;-72
2021/09/22 05:43:01;;;;;;;20.50;13.55;;;10.20;99.90;;;;;;5031732;28;20400;-70
2021/09/22 05:45:47;;;;;;;22.58;13.43;;;10.20;99.90;;;;;;5031515;28;20061;-70
2021/09/22 05:48:33;;;;;;;18.98;13.55;;;10.20;99.90;;;;;;5036744;28;20045;-71
2021/09/22 05:51:19;;;;;;;19.98;13.48;;;10.20;99.90;;;;;;5018357;28;20033;-71
2021/09/22 05:54:06;;;;;;;20.42;12.68;;;10.20;99.90;;;;;;5027137;28;20045;-71
2021/09/22 05:56:52;;;;;;;18.48;13.05;;;10.30;99.90;;;;;;5029308;28;20123;-70
2021/09/22 05:59:45;;;;;;;17.65;12.02;;;10.40;99.90;;;;;;5017416;28;20042;-70
2021/09/22 06:02:31;;;;;;;15.50;11.85;;;10.40;99.90;;;;;;5017149;28;20038;-70
2021/09/22 06:05:17;;;;;;;17.85;12.68;;;10.50;99.90;;;;;;5012239;28;20049;-70
2021/09/22 06:08:05;;;;;;;19.08;12.85;;;10.50;99.90;;;;;;5014395;28;20113;-69
2021/09/22 06:11:01;;;;;;;18.20;11.70;;;10.50;99.90;;;;;;5035717;28;20104;-70
2021/09/22 06:13:55;;;;;;;18.58;13.68;;;10.50;99.90;;;;;;5028124;28;20062;-71
2021/09/22 06:16:24;;;;;;;21.08;13.80;;;10.60;99.90;;;;;;5036855;28;20372;-70
2021/09/22 06:18:53;;;;;;;19.83;12.35;;;10.60;99.90;;;;;;5012620;28;20464;-70
2021/09/22 06:21:21;;;;;;;20.40;13.63;;;10.70;99.90;;;;;;5026664;28;20047;-70
2021/09/22 06:23:52;;;;;;;19.65;13.90;;;10.80;99.90;;;;;;5030338;28;20034;-70
2021/09/22 06:26:23;;;;;;;22.57;14.07;;;10.90;99.90;;;;;;5017537;28;20510;-70
2021/09/22 06:28:52;;;;;;;17.97;13.37;;;10.90;99.90;;;;;;5030407;28;20037;-69
2021/09/22 06:31:19;;;;;;;17.98;13.00;;;10.90;99.90;;;;;;4999757;28;20141;-71
2021/09/22 06:34:00;;;;;;;17.80;12.48;;;11.10;99.90;;;;;;5028470;28;20541;-70
2021/09/22 06:36:28;;;;;;;17.10;12.65;;;11.20;99.90;;;;;;5029144;28;20033;-70
2021/09/22 06:38:55;;;;;;;17.88;13.18;;;11.30;99.90;;;;;;5022331;28;20496;-69
2021/09/22 06:41:23;;;;;;;21.63;14.70;;;11.40;99.90;;;;;;5029104;28;20041;-69
2021/09/22 06:43:51;;;;;;;19.10;12.80;;;11.30;99.90;;;;;;5021765;28;20568;-70
2021/09/22 06:46:19;;;;;;;19.25;13.27;;;11.40;99.90;;;;;;5018271;28;20042;-69
2021/09/22 06:48:46;;;;;;;19.92;13.23;;;11.40;99.90;;;;;;5027105;28;20041;-69
2021/09/22 06:51:17;;;;;;;18.60;13.32;;;11.50;99.90;;;;;;5021397;28;20046;-70
2021/09/22 06:53:45;;;;;;;18.85;12.40;;;11.50;99.90;;;;;;5027150;28;20364;-69
2021/09/22 06:56:13;;;;;;;23.02;13.80;;;11.60;99.90;;;;;;5039059;28;20045;-69
2021/09/22 06:58:40;;;;;;;18.02;12.80;;;11.70;99.90;;;;;;5024613;28;20045;-70
2021/09/22 07:01:08;;;;;;;26.35;12.90;;;11.80;99.90;;;;;;5041991;28;20048;-70
2021/09/22 07:03:36;;;;;;;21.30;12.77;;;12.00;99.90;;;;;;5043866;28;20044;-70
2021/09/22 07:06:05;;;;;;;23.67;13.18;;;12.10;99.90;;;;;;5040936;28;20044;-70
2021/09/22 07:08:33;;;;;;;22.73;13.85;;;12.20;99.90;;;;;;5039758;28;20454;-70
2021/09/22 07:11:00;;;;;;;24.40;14.48;;;12.40;99.90;;;;;;5040326;28;20836;-70
2021/09/22 07:13:28;;;;;;;20.55;13.77;;;12.60;99.90;;;;;;5016111;28;20041;-70
2021/09/22 07:15:56;;;;;;;24.35;13.82;;;12.80;99.90;;;;;;5034470;28;20076;-70
2021/09/22 07:18:25;;;;;;;21.05;14.52;;;13.00;99.90;;;;;;5030529;28;20372;-70
2021/09/22 07:20:52;;;;;;;23.05;14.23;;;13.10;99.90;;;;;;5036920;28;20077;-70
2021/09/22 07:23:20;;;;;;;20.67;13.02;;;13.20;99.90;;;;;;5043401;28;20132;-70
2021/09/22 07:25:47;;;;;;;24.38;14.23;;;13.30;99.90;;;;;;5043557;28;20148;-70
2021/09/22 07:28:15;;;;;;;23.80;13.65;;;13.40;99.90;;;;;;5040058;28;20359;-70
2021/09/22 07:30:42;;;;;;;22.92;13.32;;;13.60;99.90;;;;;;5025162;28;20042;-70
2021/09/22 07:33:10;;;;;;;25.23;13.07;;;13.70;99.90;;;;;;5041373;28;20587;-70
2021/09/22 07:35:37;;;;;;;22.83;13.18;;;13.70;99.90;;;;;;5032565;28;20045;-70
2021/09/22 07:38:05;;;;;;;24.38;13.55;;;13.90;99.90;;;;;;5039145;28;20045;-68
2021/09/22 07:40:32;;;;;;;23.98;13.40;;;13.80;99.90;;;;;;5051967;28;20064;-69
2021/09/22 07:42:59;;;;;;;16.73;11.30;;;13.80;99.90;;;;;;5027001;28;20053;-69
2021/09/22 07:45:27;;;;;;;22.27;13.65;;;13.80;99.90;;;;;;5033415;28;20317;-69
2021/09/22 07:47:54;;;;;;;21.65;13.82;;;14.00;99.90;;;;;;5038595;28;20125;-69
2021/09/22 07:50:21;;;;;;;20.52;13.55;;;14.00;99.90;;;;;;5041901;28;20041;-69
2021/09/22 07:52:49;;;;;;;16.58;11.68;;;13.90;99.90;;;;;;5032292;28;20048;-69
2021/09/22 07:55:18;;;;;;;18.85;12.32;;;14.00;99.90;;;;;;5009595;28;20056;-69
2021/09/22 07:57:47;;;;;;;17.98;12.05;;;14.10;99.90;;;;;;5029756;28;20118;-69
2021/09/22 08:00:15;;;;;;;20.58;12.38;;;14.20;99.90;;;;;;5020420;28;20057;-69
2021/09/22 08:02:48;;;;;;;21.10;12.15;;;14.30;99.90;;;;;;5024908;28;20048;-69
2021/09/22 08:05:16;;;;;;;20.27;10.93;;;14.60;99.90;;;;;;5033422;28;20455;-69
2021/09/22 08:07:44;;;;;;;16.98;10.70;;;14.70;99.90;;;;;;5036471;28;20216;-69
2021/09/22 08:10:13;;;;;;;14.85;10.95;;;14.70;99.90;;;;;;5022599;28;20354;-69
2021/09/22 08:12:42;;;;;;;17.40;11.70;;;14.30;99.90;;;;;;5010702;28;20073;-69
2021/09/22 08:15:10;;;;;;;18.20;11.07;;;14.20;99.90;;;;;;5032218;28;20129;-69
2021/09/22 08:17:37;;;;;;;17.63;10.45;;;14.30;99.90;;;;;;5033116;28;20041;-69
2021/09/22 08:20:06;;;;;;;14.13;9.73;;;14.30;99.90;;;;;;5034881;28;20050;-69
2021/09/22 08:22:33;;;;;;;15.95;10.05;;;14.30;99.90;;;;;;5034396;28;20537;-69
2021/09/22 08:25:02;;;;;;;16.77;10.18;;;14.60;99.90;;;;;;5003642;28;20514;-69
2021/09/22 08:27:30;;;;;;;15.73;10.38;;;15.00;99.90;;;;;;5041144;28;20426;-69
2021/09/22 08:29:57;;;;;;;15.63;9.65;;;15.10;99.90;;;;;;5010206;28;20048;-69
2021/09/22 08:32:24;;;;;;;20.30;10.57;;;15.40;99.90;;;;;;5014305;28;20108;-69
2021/09/22 08:34:52;;;;;;;13.50;10.20;;;15.30;99.90;;;;;;5026683;28;20120;-69
2021/09/22 08:37:19;;;;;;;17.17;10.15;;;15.40;99.90;;;;;;5018106;28;20033;-69
2021/09/22 08:39:50;;;;;;;14.88;10.13;;;15.70;99.90;;;;;;4999575;28;20049;-69
2021/09/22 08:42:18;;;;;;;15.45;10.75;;;15.90;99.90;;;;;;5038650;28;20144;-69
2021/09/22 08:44:46;;;;;;;20.70;10.27;;;15.70;99.90;;;;;;5014913;28;20136;-69
2021/09/22 08:47:14;;;;;;;15.55;9.75;;;15.80;99.90;;;;;;5039220;28;20045;-69
2021/09/22 08:49:56;;;;;;;23.75;9.57;;;16.10;99.90;;;;;;5035231;28;20037;-69
2021/09/22 08:52:24;;;;;;;18.55;10.02;;;16.40;99.90;;;;;;5015789;28;20053;-69
2021/09/22 08:54:51;;;;;;;14.55;9.77;;;16.40;99.90;;;;;;5029328;28;20068;-69
2021/09/22 08:57:19;;;;;;;14.90;9.45;;;16.50;99.90;;;;;;5027950;28;20472;-69
2021/09/22 08:59:46;;;;;;;15.90;9.65;;;16.60;99.90;;;;;;5022263;28;20504;-69
2021/09/22 09:02:20;;;;;;;16.73;10.63;;;16.40;99.90;;;;;;5023771;28;20038;-69
2021/09/22 09:05:21;;;;;;;14.38;9.43;;;16.40;99.90;;;;;;5025493;28;20045;-69
2021/09/22 09:07:54;;;;;;;15.18;10.13;;;16.50;99.90;;;;;;5026358;28;20102;-69
2021/09/22 09:10:31;;;;;;;17.05;10.20;;;16.30;99.90;;;;;;5025484;28;20157;-69
2021/09/22 09:12:58;;;;;;;16.63;9.95;;;16.30;99.90;;;;;;5031108;28;20495;-69
2021/09/22 09:15:32;;;;;;;14.73;10.07;;;16.40;99.90;;;;;;5020462;28;20049;-69
2021/09/22 09:18:01;;;;;;;14.45;8.70;;;16.60;99.90;;;;;;5035549;28;20418;-69
2021/09/22 09:20:31;;;;;;;13.93;9.45;;;16.90;99.90;;;;;;5033221;28;20064;-69
2021/09/22 09:23:14;;;;;;;15.07;9.95;;;17.30;99.90;;;;;;5036450;28;20046;-70
2021/09/22 09:25:56;;;;;;;13.95;9.10;;;17.10;99.90;;;;;;5028546;28;20048;-69
2021/09/22 09:28:36;;;;;;;11.38;8.60;;;17.10;99.90;;;;;;5035901;28;20052;-70
2021/09/22 09:31:07;;;;;;;15.60;9.52;;;17.40;99.90;;;;;;5015955;28;20128;-70
2021/09/22 09:33:43;;;;;;;13.88;10.07;;;17.60;99.90;;;;;;5037289;28;20526;-70
2021/09/22 09:36:20;;;;;;;15.50;9.57;;;17.50;99.90;;;;;;5035244;28;20081;-70
2021/09/22 09:39:11;;;;;;;13.75;9.60;;;17.70;99.90;;;;;;5034948;28;20128;-70
2021/09/22 09:41:49;;;;;;;13.25;10.20;;;17.70;99.90;;;;;;5029430;28;20060;-69
2021/09/22 09:44:25;;;;;;;14.60;8.80;;;17.50;99.90;;;;;;5034005;28;20056;-70
2021/09/22 09:46:55;;;;;;;16.70;11.40;;;17.60;99.90;;;;;;5037827;28;20159;-70
2021/09/22 09:49:24;;;;;;;14.93;8.65;;;17.90;99.90;;;;;;5039947;28;20476;-70
2021/09/22 09:52:00;;;;;;;14.63;8.93;;;17.90;99.90;;;;;;5033303;28;20168;-69
2021/09/22 09:54:49;;;;;;;15.18;9.15;;;17.90;99.90;;;;;;5027774;28;20052;-69
2021/09/22 09:57:18;;;;;;;11.95;8.13;;;17.90;99.90;;;;;;5030849;28;20068;-70
2021/09/22 09:59:47;;;;;;;15.65;9.18;;;17.70;99.90;;;;;;5032899;28;20447;-70
2021/09/22 10:02:28;;;;;;;14.88;8.00;;;17.80;99.90;;;;;;5031116;28;20072;-68
2021/09/22 10:04:58;;;;;;;13.80;8.77;;;17.60;99.90;;;;;;5026902;28;20084;-69
2021/09/22 10:07:27;;;;;;;16.15;7.43;;;17.50;99.90;;;;;;5037038;28;20052;-69
2021/09/22 10:09:55;;;;;;;12.48;7.65;;;17.50;99.90;;;;;;5041512;28;20048;-69
2021/09/22 10:12:23;;;;;;;12.68;8.05;;;17.40;99.90;;;;;;5030179;28;20389;-69
2021/09/22 10:14:52;;;;;;;14.85;7.68;;;17.50;99.90;;;;;;5038440;28;20076;-69
2021/09/22 10:17:23;;;;;;;12.25;7.07;;;17.90;99.90;;;;;;5032467;28;20046;-70
2021/09/22 10:19:53;;;;;;;15.63;7.82;;;18.30;99.90;;;;;;5041299;28;20120;-70
2021/09/22 10:22:22;;;;;;;10.23;6.55;;;18.80;99.90;;;;;;5044058;28;20053;-69
2021/09/22 10:25:02;;;;;;;13.25;6.20;;;18.70;99.90;;;;;;5126968;27;20399;-69
2021/09/22 10:27:49;;;;;;;10.82;5.40;;;18.80;99.90;;;;;;5063799;28;20444;-70
2021/09/22 10:30:40;;;;;;;7.60;4.70;;;19.10;99.90;;;;;;5049704;28;20925;-70
2021/09/22 10:33:25;;;;;;;8.95;4.22;;;19.40;99.90;;;;;;5126449;27;20482;-70
2021/09/22 10:36:06;;;;;;;9.07;4.10;;;19.80;99.90;;;;;;5127028;27;20427;-69
2021/09/22 10:38:48;;;;;;;7.25;4.18;;;19.80;99.90;;;;;;5059624;28;20903;-69
2021/09/22 10:41:30;;;;;;;8.52;4.55;;;19.80;99.90;;;;;;5049538;28;20969;-69
2021/09/22 10:44:36;;;;;;;9.15;4.75;;;19.90;99.90;;;;;;5074190;27;20411;-69
2021/09/22 10:47:26;;;;;;;13.00;4.97;;;20.10;99.90;;;;;;5115740;27;20177;-70
2021/09/22 10:50:06;;;;;;;8.50;4.57;;;20.40;99.90;;;;;;5086086;28;20891;-69
2021/09/22 10:52:45;;;;;;;50.30;9.63;;;20.30;99.90;;;;;;5046663;28;20388;-70
2021/09/22 10:55:23;;;;;;;11.90;4.22;;;20.10;99.90;;;;;;5058240;28;20466;-70
2021/09/22 10:58:12;;;;;;;8.18;3.63;;;19.90;99.90;;;;;;5054813;28;20444;-69
2021/09/22 11:00:50;;;;;;;8.50;3.78;;;20.00;99.90;;;;;;5065556;28;20784;-69
2021/09/22 11:03:46;;;;;;;11.93;3.85;;;20.10;99.90;;;;;;5060956;28;20437;-70
2021/09/22 11:06:46;;;;;;;12.70;3.85;;;20.60;99.90;;;;;;5056509;28;20723;-69
2021/09/22 11:09:30;;;;;;;5.57;2.95;;;20.90;99.90;;;;;;5068078;28;20383;-69
2021/09/22 11:12:11;;;;;;;7.45;2.92;;;21.20;99.90;;;;;;5059862;28;20438;-70
2021/09/22 11:15:00;;;;;;;7.30;2.75;;;21.60;99.90;;;;;;5057423;28;20733;-70
2021/09/22 11:17:41;;;;;;;6.70;3.20;;;21.70;99.90;;;;;;5065668;28;20387;-70
2021/09/22 11:20:20;;;;;;;7.82;2.97;;;21.40;99.90;;;;;;5057568;28;20402;-70
2021/09/22 11:23:11;;;;;;;7.63;2.85;;;21.50;99.90;;;;;;5057230;28;20380;-69
2021/09/22 11:25:52;;;;;;;8.27;3.33;;;21.20;99.90;;;;;;5127099;27;20387;-69
2021/09/22 11:28:31;;;;;;;6.00;2.78;;;21.10;99.90;;;;;;5048718;28;20904;-69
2021/09/22 11:31:11;;;;;;;7.05;2.72;;;21.50;99.90;;;;;;5058132;28;20377;-70
2021/09/22 11:34:02;;;;;;;6.60;2.40;;;21.90;99.90;;;;;;5062198;28;20418;-70
2021/09/22 11:37:13;;;;;;;8.65;2.30;;;22.10;99.90;;;;;;5065935;28;20432;-70
2021/09/22 11:39:51;;;;;;;5.30;2.10;;;22.30;99.90;;;;;;5057716;28;20380;-70
2021/09/22 11:42:31;;;;;;;8.15;2.40;;;22.90;99.90;;;;;;5066053;28;20390;-69
2021/09/22 11:45:11;;;;;;;5.80;2.67;;;23.00;99.90;;;;;;5055913;28;20390;-69
2021/09/22 11:47:51;;;;;;;7.63;3.05;;;22.70;99.90;;;;;;5108927;27;20384;-69
2021/09/22 11:50:37;;;;;;;6.00;2.47;;;22.20;99.90;;;;;;5112241;27;20772;-69
2021/09/22 11:53:18;;;;;;;17.30;4.25;;;21.90;99.90;;;;;;5065772;28;20452;-69
2021/09/22 11:55:58;;;;;;;21.75;3.75;;;22.40;99.90;;;;;;5042754;28;20376;-68
2021/09/22 11:58:38;;;;;;;10.90;3.38;;;23.00;99.90;;;;;;5050551;28;20117;-69
2021/09/22 12:01:17;;;;;;;9.00;2.63;;;23.30;99.90;;;;;;5048345;28;20588;-68
2021/09/22 12:03:56;;;;;;;6.22;2.22;;;23.80;99.90;;;;;;5065459;28;20452;-69
2021/09/22 12:06:40;;;;;;;6.90;2.60;;;23.00;99.90;;;;;;5047847;28;20384;-70
2021/09/22 12:09:19;;;;;;;5.85;2.30;;;22.80;99.90;;;;;;5066796;28;20387;-69
2021/09/22 12:12:10;;;;;;;6.22;2.22;;;23.00;99.90;;;;;;5065549;28;20444;-69
2021/09/22 12:14:52;;;;;;;7.68;2.58;;;22.90;99.90;;;;;;5050022;28;20430;-69
2021/09/22 12:17:34;;;;;;;12.15;2.72;;;23.10;99.90;;;;;;5065496;28;20383;-69
2021/09/22 12:20:16;;;;;;;8.90;2.65;;;23.40;99.90;;;;;;5096612;27;20450;-68
2021/09/22 12:22:57;;;;;;;9.75;2.30;;;23.80;99.90;;;;;;5065933;28;20772;-69
2021/09/22 12:25:36;;;;;;;6.80;2.92;;;23.70;99.90;;;;;;5006377;28;20445;-70
2021/09/22 12:28:17;;;;;;;8.02;3.13;;;23.40;99.90;;;;;;5064097;28;20441;-68
2021/09/22 12:30:57;;;;;;;8.15;3.05;;;23.10;99.90;;;;;;5139819;27;20394;-69
2021/09/22 12:33:36;;;;;;;7.07;2.40;;;23.30;99.90;;;;;;5126689;27;20375;-69
2021/09/22 12:36:19;;;;;;;8.70;2.60;;;23.00;99.90;;;;;;5055897;28;20446;-69
2021/09/22 12:38:59;;;;;;;8.95;2.90;;;23.30;99.90;;;;;;5045878;28;20477;-69
2021/09/22 12:41:37;;;;;;;7.70;2.60;;;22.90;99.90;;;;;;5065746;28;20432;-69
2021/09/22 12:44:15;;;;;;;6.93;2.70;;;22.70;99.90;;;;;;5051434;28;20400;-69
2021/09/22 12:46:54;;;;;;;8.77;2.78;;;23.20;99.90;;;;;;5065979;28;20424;-69
2021/09/22 12:49:34;;;;;;;5.38;2.47;;;24.40;99.90;;;;;;5126294;27;20790;-69
2021/09/22 12:52:21;;;;;;;6.38;3.13;;;26.00;99.90;;;;;;5065697;28;20386;-69
2021/09/22 12:55:16;;;;;;;6.28;2.47;;;26.50;99.90;;;;;;5059408;28;20382;-70
2021/09/22 12:58:01;;;;;;;5.72;2.63;;;26.50;99.90;;;;;;5061405;28;20479;-68
2021/09/22 13:00:56;;;;;;;6.03;2.08;;;26.90;99.90;;;;;;5052108;28;20404;-69
2021/09/22 13:03:36;;;;;;;8.35;2.13;;;29.30;99.90;;;;;;5106637;27;20373;-68
2021/09/22 13:06:23;;;;;;;6.60;2.05;;;31.00;96.30;;;;;;5064417;28;20987;-70
2021/09/22 13:09:05;;;;;;;8.82;2.60;;;31.60;92.50;;;;;;5081947;28;20432;-70
2021/09/22 13:11:46;;;;;;;8.15;2.38;;;30.00;92.10;;;;;;5057373;28;20888;-70
2021/09/22 13:14:25;;;;;;;8.80;2.28;;;30.60;91.60;;;;;;5112022;27;20484;-68
2021/09/22 13:17:05;;;;;;;7.53;2.35;;;31.90;90.10;;;;;;5045677;28;20404;-68